Ash Shaykh Uthman, Yemen
Current Conditions -  °F | °C
As of 3:00 PM on Sunday 25 Jan 2015 (Local Time) from OYAA Reporting Station
Scattered Clouds Scattered Clouds  
Wind Chill: 28°   Ceiling: Unl
Heat Index: 28°   Visibility: 6mi
Dew Point: 15°   Wind: 17mph
Humidity: 45%   Direction: 120°ESE
Pressure: 30"   Gusts: NA
Location:  12.87°N, 44.98°E
Report Text: OYAA 251200Z 12015KT 9999 SCT018 28/15 Q1016
Loading
Personal Weather Stations






























Interactive Weather Map New forecast layout! Learn more

10-Day Weather Forecast

Advertisements
Track Severe Weather on mobile